createdAt,value
2017-12-21T00:00:01.165Z,7.93
2017-12-21T00:00:34.163Z,7.80
2017-12-21T00:01:07.823Z,7.85
2017-12-21T00:01:41.496Z,8.60
2017-12-21T00:02:15.151Z,7.90
2017-12-21T00:02:49.609Z,8.57
2017-12-21T00:03:23.262Z,7.40
2017-12-21T00:03:57.687Z,7.53
2017-12-21T00:04:31.364Z,7.78
2017-12-21T00:05:05.019Z,7.22
2017-12-21T00:05:38.666Z,7.20
2017-12-21T00:06:12.322Z,7.65
2017-12-21T00:06:46.740Z,7.47
2017-12-21T00:07:20.397Z,8.05
2017-12-21T00:07:54.054Z,7.82
2017-12-21T00:08:27.765Z,7.15
2017-12-21T00:09:01.425Z,8.70
2017-12-21T00:09:35.525Z,8.00
2017-12-21T00:10:09.209Z,7.65
2017-12-21T00:10:42.545Z,8.45
2017-12-21T00:11:16.225Z,7.75
2017-12-21T00:11:50.321Z,8.48
2017-12-21T00:12:23.978Z,7.95
2017-12-21T00:12:57.633Z,7.97
2017-12-21T00:13:31.293Z,9.25
2017-12-21T00:14:04.630Z,8.30
2017-12-21T00:14:38.584Z,8.45
2017-12-21T00:15:13.009Z,7.93
2017-12-21T00:15:46.690Z,8.85
2017-12-21T00:16:21.110Z,7.95
2017-12-21T00:16:54.439Z,8.60
2017-12-21T00:17:28.114Z,8.50
2017-12-21T00:18:01.786Z,9.15
2017-12-21T00:18:35.454Z,9.50
2017-12-21T00:19:09.135Z,9.93
2017-12-21T00:19:43.944Z,8.43
2017-12-21T00:20:18.366Z,9.63
2017-12-21T00:20:51.395Z,8.98
2017-12-21T00:21:25.071Z,10.32
2017-12-21T00:21:58.751Z,11.10
2017-12-21T00:22:41.956Z,10.75
2017-12-21T00:23:15.631Z,10.05
2017-12-21T00:23:49.311Z,10.05
2017-12-21T00:24:22.966Z,9.70
2017-12-21T00:24:56.952Z,10.38
2017-12-21T00:25:30.602Z,9.23
2017-12-21T00:26:04.270Z,10.38
2017-12-21T00:26:37.933Z,11.32
2017-12-21T00:27:11.602Z,11.10
2017-12-21T00:27:45.259Z,11.27
2017-12-21T00:28:18.914Z,10.75
2017-12-21T00:28:53.028Z,10.55
2017-12-21T00:29:26.698Z,10.73
2017-12-21T00:30:01.155Z,10.10
2017-12-21T00:30:34.815Z,11.80
2017-12-21T00:31:08.488Z,11.10
2017-12-21T00:31:42.929Z,12.15
2017-12-21T00:32:16.603Z,10.80
2017-12-21T00:32:50.291Z,11.32
2017-12-21T00:33:23.971Z,12.02
2017-12-21T00:33:58.412Z,11.40
2017-12-21T00:34:32.097Z,11.30
2017-12-21T00:35:05.798Z,11.82
2017-12-21T00:35:39.467Z,12.55
2017-12-21T00:36:13.133Z,12.80
2017-12-21T00:36:47.572Z,14.07
2017-12-21T00:37:21.245Z,13.40
2017-12-21T00:37:54.608Z,13.05
2017-12-21T00:38:28.712Z,13.25
2017-12-21T00:39:03.166Z,13.70
2017-12-21T00:39:36.851Z,13.43
2017-12-21T00:40:10.806Z,12.93
2017-12-21T00:40:44.911Z,12.68
2017-12-21T00:41:19.351Z,12.60
2017-12-21T00:41:53.013Z,13.07
2017-12-21T00:42:27.442Z,13.02
2017-12-21T00:43:01.106Z,13.00
2017-12-21T00:43:35.554Z,13.30
2017-12-21T00:44:09.230Z,12.70
2017-12-21T00:44:42.899Z,12.25
2017-12-21T00:45:16.879Z,13.32
2017-12-21T00:46:02.446Z,12.85
2017-12-21T00:46:36.871Z,11.50
2017-12-21T00:47:10.542Z,11.07
2017-12-21T00:47:44.981Z,13.20
2017-12-21T00:48:18.650Z,12.20
2017-12-21T00:48:53.094Z,12.98
2017-12-21T00:49:26.786Z,11.80
2017-12-21T00:50:00.468Z,11.93
2017-12-21T00:50:34.429Z,11.60
2017-12-21T00:51:08.881Z,11.95
2017-12-21T00:51:42.586Z,11.10
2017-12-21T00:52:16.279Z,12.10
2017-12-21T00:52:49.943Z,11.75
2017-12-21T00:53:23.626Z,10.18
2017-12-21T00:53:57.292Z,12.15
2017-12-21T00:54:31.394Z,10.73
2017-12-21T00:55:05.078Z,11.32
2017-12-21T00:55:39.885Z,11.23
2017-12-21T00:56:14.312Z,10.88
2017-12-21T00:56:47.994Z,12.20
2017-12-21T00:57:21.666Z,11.65
2017-12-21T00:57:56.099Z,12.25
2017-12-21T00:58:29.769Z,12.50
2017-12-21T00:59:04.213Z,12.10
2017-12-21T00:59:37.894Z,11.82
2017-12-21T01:00:11.562Z,11.77
2017-12-21T01:00:45.957Z,12.80
2017-12-21T01:01:20.382Z,12.07
2017-12-21T01:01:54.062Z,12.15
2017-12-21T01:02:28.497Z,11.30
2017-12-21T01:03:02.166Z,12.55
2017-12-21T01:03:35.855Z,11.27
2017-12-21T01:04:10.303Z,11.68
2017-12-21T01:04:43.979Z,12.48
2017-12-21T01:05:17.653Z,13.18
2017-12-21T01:05:51.630Z,12.70
2017-12-21T01:06:26.075Z,12.75
2017-12-21T01:06:59.740Z,11.43
2017-12-21T01:07:33.409Z,11.73
2017-12-21T01:08:07.855Z,11.18
2017-12-21T01:08:41.516Z,14.05
2017-12-21T01:09:15.946Z,12.23
2017-12-21T01:09:49.632Z,12.80
2017-12-21T01:10:23.298Z,14.50
2017-12-21T01:10:58.126Z,12.18
2017-12-21T01:11:32.559Z,13.60
2017-12-21T01:12:06.234Z,12.95
2017-12-21T01:12:39.920Z,12.68
2017-12-21T01:13:13.589Z,12.10
2017-12-21T01:13:48.021Z,12.57
2017-12-21T01:14:21.700Z,13.95
2017-12-21T01:14:55.372Z,12.35
2017-12-21T01:15:29.811Z,12.55
2017-12-21T01:16:03.503Z,12.23
2017-12-21T01:16:37.182Z,12.23
2017-12-21T01:17:10.852Z,13.95
2017-12-21T01:17:44.513Z,13.70
2017-12-21T01:18:18.179Z,12.70
2017-12-21T01:18:51.866Z,13.00
2017-12-21T01:19:25.532Z,13.35
2017-12-21T01:19:59.219Z,13.65
2017-12-21T01:20:32.888Z,13.10
2017-12-21T01:21:06.945Z,14.13
2017-12-21T01:21:40.622Z,13.23
2017-12-21T01:22:14.295Z,13.02
2017-12-21T01:22:47.975Z,13.10
2017-12-21T01:23:21.645Z,12.57
2017-12-21T01:23:56.075Z,13.57
2017-12-21T01:24:29.746Z,12.80
2017-12-21T01:25:04.186Z,12.25
2017-12-21T01:25:37.857Z,14.38
2017-12-21T01:26:11.551Z,13.32
2017-12-21T01:26:45.224Z,13.25
2017-12-21T01:27:19.648Z,13.82
2017-12-21T01:27:53.313Z,12.20
2017-12-21T01:28:27.770Z,13.15
2017-12-21T01:29:01.435Z,14.20
2017-12-21T01:29:35.106Z,12.40
2017-12-21T01:30:09.527Z,13.43
2017-12-21T01:30:43.195Z,12.55
2017-12-21T01:31:17.666Z,12.73
2017-12-21T01:31:51.343Z,12.75
2017-12-21T01:32:25.019Z,13.60
2017-12-21T01:32:58.694Z,13.32
2017-12-21T01:33:32.362Z,12.75
2017-12-21T01:34:06.788Z,13.13
2017-12-21T01:34:40.451Z,13.07
2017-12-21T01:35:14.119Z,13.25
2017-12-21T01:35:47.789Z,13.60
2017-12-21T01:36:21.480Z,11.95
2017-12-21T01:36:55.136Z,14.23
2017-12-21T01:37:30.977Z,14.18
2017-12-21T01:38:05.404Z,13.13
2017-12-21T01:38:39.076Z,13.68
2017-12-21T01:39:12.731Z,13.52
2017-12-21T01:39:46.393Z,12.90
2017-12-21T01:40:19.401Z,14.73
2017-12-21T01:40:52.402Z,15.15
2017-12-21T01:41:26.401Z,14.32
2017-12-21T01:41:59.734Z,14.90
2017-12-21T01:42:32.752Z,12.95
2017-12-21T01:43:06.879Z,14.60
2017-12-21T01:43:39.883Z,14.00
2017-12-21T01:44:13.225Z,14.70
2017-12-21T01:44:46.555Z,14.10
2017-12-21T01:45:19.878Z,13.30
2017-12-21T01:45:53.526Z,15.43
2017-12-21T01:46:27.211Z,13.52
2017-12-21T01:47:00.882Z,13.38
2017-12-21T01:47:34.570Z,14.40
2017-12-21T01:48:08.253Z,14.27
2017-12-21T01:48:41.916Z,14.48
2017-12-21T01:49:15.571Z,14.35
2017-12-21T01:49:50.007Z,13.68
2017-12-21T01:50:23.676Z,14.75
2017-12-21T01:50:58.105Z,14.38
2017-12-21T01:51:31.799Z,15.80
2017-12-21T01:52:05.470Z,14.63
2017-12-21T01:52:39.920Z,13.93
2017-12-21T01:53:13.637Z,13.70
2017-12-21T01:53:47.300Z,14.30
2017-12-21T01:54:20.989Z,15.35
2017-12-21T01:54:54.674Z,15.13
2017-12-21T01:55:28.326Z,14.68
2017-12-21T01:56:02.775Z,14.45
2017-12-21T01:56:36.468Z,15.02
2017-12-21T01:57:10.182Z,14.45
2017-12-21T01:57:43.533Z,15.15
2017-12-21T01:58:17.202Z,14.15
2017-12-21T01:58:50.874Z,15.60
2017-12-21T01:59:25.302Z,14.75
2017-12-21T01:59:58.963Z,14.30
2017-12-21T02:00:33.384Z,14.27
2017-12-21T02:01:07.814Z,15.32
2017-12-21T02:01:41.510Z,14.95
2017-12-21T02:02:15.166Z,15.18
2017-12-21T02:02:49.607Z,14.38
2017-12-21T02:03:23.290Z,14.65
2017-12-21T02:03:56.980Z,13.45
2017-12-21T02:04:30.643Z,14.00
2017-12-21T02:05:04.736Z,14.45
2017-12-21T02:05:39.167Z,14.52
2017-12-21T02:06:12.501Z,14.10
2017-12-21T02:06:46.183Z,14.25
2017-12-21T02:07:19.855Z,13.77
2017-12-21T02:07:53.531Z,14.20
2017-12-21T02:08:26.881Z,15.90
2017-12-21T02:09:00.977Z,14.80
2017-12-21T02:09:35.406Z,14.00
2017-12-21T02:10:09.072Z,15.02
2017-12-21T02:10:43.521Z,13.68
2017-12-21T02:11:17.187Z,14.60
2017-12-21T02:11:51.175Z,13.43
2017-12-21T02:12:25.609Z,14.57
2017-12-21T02:12:59.286Z,13.77
2017-12-21T02:13:32.975Z,12.50
2017-12-21T02:14:06.350Z,13.30
2017-12-21T02:14:40.022Z,13.38
2017-12-21T02:15:14.458Z,13.68
2017-12-21T02:15:48.175Z,13.82
2017-12-21T02:16:22.063Z,14.32
2017-12-21T02:16:55.956Z,14.02
2017-12-21T02:17:29.630Z,14.20
2017-12-21T02:18:03.312Z,14.45
2017-12-21T02:18:36.991Z,13.73
2017-12-21T02:19:10.015Z,12.90
2017-12-21T02:19:43.039Z,13.07
2017-12-21T02:20:16.802Z,13.65
2017-12-21T02:20:49.809Z,13.05
2017-12-21T02:21:22.814Z,12.70
2017-12-21T02:21:55.853Z,12.60
2017-12-21T02:22:28.868Z,13.75
2017-12-21T02:23:01.886Z,13.00
2017-12-21T02:23:34.912Z,13.48
2017-12-21T02:24:07.919Z,11.85
2017-12-21T02:24:41.025Z,13.05
2017-12-21T02:25:14.040Z,13.95
2017-12-21T02:25:47.058Z,12.73
2017-12-21T02:26:20.866Z,11.70
2017-12-21T02:26:53.862Z,12.60
2017-12-21T02:27:26.877Z,11.98
2017-12-21T02:28:00.492Z,13.05
2017-12-21T02:28:34.254Z,12.23
2017-12-21T02:29:07.601Z,11.98
2017-12-21T02:29:40.603Z,10.95
2017-12-21T02:30:14.380Z,13.23
2017-12-21T02:30:47.720Z,11.98
2017-12-21T02:31:20.727Z,11.85
2017-12-21T02:31:53.735Z,11.27
2017-12-21T02:32:27.032Z,12.90
2017-12-21T02:33:00.794Z,12.65
2017-12-21T02:33:33.822Z,12.10
2017-12-21T02:34:06.814Z,12.07
2017-12-21T02:34:40.147Z,11.80
2017-12-21T02:35:14.258Z,12.52
2017-12-21T02:35:48.030Z,12.95
2017-12-21T02:36:21.038Z,11.80
2017-12-21T02:36:54.038Z,11.30
2017-12-21T02:37:27.374Z,12.60
2017-12-21T02:38:01.150Z,11.32
2017-12-21T02:38:34.497Z,11.90
2017-12-21T02:39:08.162Z,12.82
2017-12-21T02:39:41.167Z,12.15
2017-12-21T02:40:14.175Z,11.30
2017-12-21T02:40:47.838Z,12.20
2017-12-21T02:41:20.890Z,11.65
2017-12-21T02:41:54.550Z,11.55
2017-12-21T02:42:27.585Z,10.75
2017-12-21T02:43:01.278Z,11.23
2017-12-21T02:43:34.287Z,12.00
2017-12-21T02:44:08.058Z,12.18
2017-12-21T02:44:41.840Z,11.82
2017-12-21T02:45:15.180Z,11.60
2017-12-21T02:45:48.218Z,11.80
2017-12-21T02:46:22.315Z,11.93
2017-12-21T02:46:56.109Z,11.23
2017-12-21T02:47:30.204Z,12.65
2017-12-21T02:48:03.194Z,12.82
2017-12-21T02:48:36.199Z,11.32
2017-12-21T02:49:09.559Z,11.48
2017-12-21T02:49:42.590Z,11.38
2017-12-21T02:50:17.110Z,12.82
2017-12-21T02:50:50.109Z,11.68
2017-12-21T02:51:23.210Z,12.50
2017-12-21T02:51:56.214Z,12.93
2017-12-21T02:52:29.228Z,11.90
2017-12-21T02:53:03.027Z,12.52
2017-12-21T02:53:36.033Z,12.30
2017-12-21T02:54:09.369Z,11.90
2017-12-21T02:54:43.142Z,12.95
2017-12-21T02:55:16.145Z,11.35
2017-12-21T02:55:49.147Z,12.15
2017-12-21T02:56:22.145Z,12.40
2017-12-21T02:56:55.152Z,12.30
2017-12-21T02:57:29.253Z,11.98
2017-12-21T02:58:03.373Z,12.80
2017-12-21T02:58:36.369Z,11.85
2017-12-21T02:59:09.706Z,12.65
2017-12-21T02:59:43.803Z,11.60
2017-12-21T03:00:17.562Z,11.63
2017-12-21T03:00:50.572Z,12.10
2017-12-21T03:01:24.370Z,11.55
2017-12-21T03:01:58.138Z,12.43
2017-12-21T03:02:31.483Z,11.63
2017-12-21T03:03:04.818Z,11.50
2017-12-21T03:03:38.588Z,12.05
2017-12-21T03:04:11.587Z,11.23
2017-12-21T03:04:45.684Z,12.75
2017-12-21T03:05:19.792Z,11.35
2017-12-21T03:05:53.889Z,11.55
2017-12-21T03:06:27.658Z,11.68
2017-12-21T03:07:00.989Z,12.05
2017-12-21T03:07:34.026Z,11.15
2017-12-21T03:08:08.167Z,12.57
2017-12-21T03:08:41.174Z,11.52
2017-12-21T03:09:14.184Z,11.52
2017-12-21T03:09:47.961Z,11.98
2017-12-21T03:10:22.073Z,11.07
2017-12-21T03:10:55.829Z,11.20
2017-12-21T03:11:29.159Z,10.40
2017-12-21T03:12:02.505Z,11.73
2017-12-21T03:12:35.873Z,11.07
2017-12-21T03:13:09.190Z,10.45
2017-12-21T03:13:42.958Z,11.07
2017-12-21T03:14:15.959Z,10.18
2017-12-21T03:14:50.069Z,10.52
2017-12-21T03:15:23.835Z,9.80
2017-12-21T03:15:57.186Z,10.32
2017-12-21T03:16:30.204Z,9.60
2017-12-21T03:17:04.634Z,9.23
2017-12-21T03:17:39.247Z,9.40
2017-12-21T03:18:13.228Z,9.45
2017-12-21T03:18:47.656Z,8.93
2017-12-21T03:19:21.319Z,9.02
2017-12-21T03:19:55.748Z,9.63
2017-12-21T03:20:29.086Z,9.15
2017-12-21T03:21:02.751Z,8.27
2017-12-21T03:21:36.423Z,9.13
2017-12-21T03:22:10.070Z,9.15
2017-12-21T03:22:44.501Z,9.15
2017-12-21T03:23:18.162Z,9.80
2017-12-21T03:23:51.825Z,9.63
2017-12-21T03:24:25.501Z,9.77
2017-12-21T03:24:59.162Z,10.00
2017-12-21T03:25:32.829Z,9.05
2017-12-21T03:26:07.247Z,9.13
2017-12-21T03:26:41.661Z,9.23
2017-12-21T03:27:15.322Z,8.15
2017-12-21T03:27:48.974Z,9.02
2017-12-21T03:28:23.017Z,9.10
2017-12-21T03:28:57.367Z,8.93
2017-12-21T03:29:31.038Z,10.10
2017-12-21T03:30:04.032Z,9.32
2017-12-21T03:30:37.052Z,10.05
2017-12-21T03:31:10.714Z,9.60
2017-12-21T03:31:44.383Z,9.82
2017-12-21T03:32:18.043Z,9.25
2017-12-21T03:32:51.373Z,10.00
2017-12-21T03:33:25.161Z,9.35
2017-12-21T03:33:58.948Z,10.00
2017-12-21T03:34:32.606Z,9.43
2017-12-21T03:35:06.258Z,9.30
2017-12-21T03:35:39.586Z,9.40
2017-12-21T03:36:13.256Z,10.48
2017-12-21T03:36:46.938Z,10.30
2017-12-21T03:37:21.363Z,10.30
2017-12-21T03:37:54.696Z,10.60
2017-12-21T03:38:28.713Z,10.82
2017-12-21T03:39:03.146Z,10.23
2017-12-21T03:39:36.482Z,10.95
2017-12-21T03:40:10.166Z,10.82
2017-12-21T03:40:43.823Z,9.98
2017-12-21T03:41:17.494Z,10.30
2017-12-21T03:41:51.150Z,10.57
2017-12-21T03:42:24.818Z,11.27
2017-12-21T03:42:58.486Z,10.90
2017-12-21T03:43:32.182Z,10.77
2017-12-21T03:44:05.853Z,11.12
2017-12-21T03:44:39.522Z,10.65
2017-12-21T03:45:13.961Z,11.43
2017-12-21T03:45:47.400Z,11.23
2017-12-21T03:46:21.499Z,11.68
2017-12-21T03:46:55.292Z,11.80
2017-12-21T03:47:29.721Z,11.85
2017-12-21T03:48:03.495Z,11.63
2017-12-21T03:48:37.947Z,12.30
2017-12-21T03:49:11.619Z,11.45
2017-12-21T03:49:45.296Z,12.88
2017-12-21T03:50:18.962Z,10.27
2017-12-21T03:50:52.743Z,12.37
2017-12-21T03:51:26.405Z,12.68
2017-12-21T03:52:00.084Z,11.88
2017-12-21T03:52:33.830Z,10.60
2017-12-21T03:53:08.268Z,12.20
2017-12-21T03:53:43.027Z,12.10
2017-12-21T03:54:16.707Z,12.35
2017-12-21T03:54:50.378Z,11.68
2017-12-21T03:55:23.379Z,11.88
2017-12-21T03:55:56.391Z,10.70
2017-12-21T03:56:29.399Z,12.00
2017-12-21T03:57:02.409Z,11.35
2017-12-21T03:57:35.747Z,12.23
2017-12-21T03:58:08.762Z,11.05
2017-12-21T03:58:42.458Z,11.65
2017-12-21T03:59:16.197Z,11.90
2017-12-21T03:59:49.998Z,11.57
2017-12-21T04:00:23.335Z,12.05
2017-12-21T04:00:57.821Z,11.95
2017-12-21T04:01:31.495Z,11.70
2017-12-21T04:02:04.833Z,11.70
2017-12-21T04:02:38.512Z,10.50
2017-12-21T04:03:12.959Z,12.13
2017-12-21T04:03:46.675Z,12.52
2017-12-21T04:04:20.367Z,12.05
2017-12-21T04:04:54.033Z,12.00
2017-12-21T04:05:27.110Z,12.13
2017-12-21T04:06:00.439Z,12.07
2017-12-21T04:06:34.863Z,12.60
2017-12-21T04:07:08.521Z,11.73
2017-12-21T04:07:42.186Z,12.13
2017-12-21T04:08:15.875Z,12.10
2017-12-21T04:08:49.578Z,11.10
2017-12-21T04:09:23.246Z,10.68
2017-12-21T04:09:57.002Z,11.65
2017-12-21T04:10:30.675Z,11.77
2017-12-21T04:11:05.104Z,9.68
2017-12-21T04:11:38.767Z,9.23
2017-12-21T04:12:12.442Z,9.50
2017-12-21T04:12:46.110Z,10.00
2017-12-21T04:13:19.778Z,9.13
2017-12-21T04:13:53.463Z,9.63
2017-12-21T04:14:27.002Z,9.07
2017-12-21T04:15:00.655Z,9.15
2017-12-21T04:15:34.313Z,8.40
2017-12-21T04:16:08.007Z,7.78
2017-12-21T04:16:41.656Z,6.55
2017-12-21T04:17:15.306Z,6.65
2017-12-21T04:17:48.972Z,6.78
2017-12-21T04:18:23.391Z,6.05
2017-12-21T04:18:57.099Z,6.55
2017-12-21T04:19:31.692Z,6.10
2017-12-21T04:20:05.350Z,6.32
2017-12-21T04:20:39.789Z,6.65
2017-12-21T04:21:13.455Z,5.85
2017-12-21T04:21:47.873Z,6.50
2017-12-21T04:22:22.307Z,6.60
2017-12-21T04:22:55.963Z,6.78
2017-12-21T04:23:29.631Z,6.78
2017-12-21T04:24:03.627Z,6.60
2017-12-21T04:24:37.294Z,6.45
2017-12-21T04:25:10.954Z,6.20
2017-12-21T04:25:44.602Z,6.30
2017-12-21T04:26:18.264Z,5.70
2017-12-21T04:26:51.914Z,5.12
2017-12-21T04:27:25.563Z,5.32
2017-12-21T04:27:59.401Z,5.40
2017-12-21T04:28:33.041Z,5.18
2017-12-21T04:29:06.712Z,6.00
2017-12-21T04:29:40.376Z,5.22
2017-12-21T04:30:14.032Z,4.15
2017-12-21T04:30:48.453Z,5.32
2017-12-21T04:31:22.114Z,4.55
2017-12-21T04:31:55.767Z,4.50
2017-12-21T04:32:29.415Z,4.90
2017-12-21T04:33:03.057Z,4.43
2017-12-21T04:33:36.711Z,4.50
2017-12-21T04:34:10.667Z,4.82
2017-12-21T04:34:44.328Z,4.30
2017-12-21T04:35:18.009Z,4.10
2017-12-21T04:35:51.660Z,4.00
2017-12-21T04:36:30.343Z,4.30
2017-12-21T04:37:06.650Z,4.00
2017-12-21T04:37:40.298Z,3.85
2017-12-21T04:38:14.716Z,4.03
2017-12-21T04:38:48.365Z,4.00
2017-12-21T04:39:22.048Z,4.12
2017-12-21T04:39:55.702Z,4.32
2017-12-21T04:40:29.424Z,4.90
2017-12-21T04:41:02.417Z,4.62
2017-12-21T04:41:36.070Z,3.97
2017-12-21T04:42:09.721Z,4.60
2017-12-21T04:42:43.433Z,4.00
2017-12-21T04:43:17.089Z,4.20
2017-12-21T04:43:51.195Z,4.22
2017-12-21T04:44:25.890Z,4.95
2017-12-21T04:44:59.538Z,4.60
2017-12-21T04:45:32.871Z,4.78
2017-12-21T04:46:07.321Z,4.85
2017-12-21T04:46:40.633Z,5.18
2017-12-21T04:47:14.288Z,4.80
2017-12-21T04:47:47.755Z,4.60
2017-12-21T04:48:21.146Z,4.78
2017-12-21T04:48:54.797Z,4.65
2017-12-21T04:49:29.260Z,4.45
2017-12-21T04:50:02.924Z,4.47
2017-12-21T04:50:36.580Z,5.43
2017-12-21T04:51:10.326Z,4.80
2017-12-21T04:51:43.654Z,4.60
2017-12-21T04:52:17.302Z,5.45
2017-12-21T04:52:50.945Z,5.50
2017-12-21T04:53:25.357Z,5.20
2017-12-21T04:53:59.771Z,5.12
2017-12-21T04:54:33.767Z,4.82
2017-12-21T04:55:08.195Z,5.70
2017-12-21T04:55:41.853Z,5.00
2017-12-21T04:56:16.287Z,5.32
2017-12-21T04:56:49.954Z,5.60
2017-12-21T04:57:24.366Z,5.45
2017-12-21T04:57:57.697Z,4.93
2017-12-21T04:58:31.353Z,5.50
2017-12-21T04:59:04.668Z,5.47
2017-12-21T04:59:38.030Z,5.53
2017-12-21T05:00:11.377Z,5.47
2017-12-21T05:00:45.126Z,5.65
2017-12-21T05:01:18.781Z,5.35
2017-12-21T05:01:52.448Z,4.87
2017-12-21T05:02:26.862Z,5.05
2017-12-21T05:03:00.529Z,5.35
2017-12-21T05:03:34.186Z,5.75
2017-12-21T05:04:07.861Z,5.65
2017-12-21T05:04:41.544Z,5.97
2017-12-21T05:05:14.526Z,5.87
2017-12-21T05:05:48.168Z,5.47
2017-12-21T05:06:22.615Z,5.18
2017-12-21T05:06:56.260Z,5.10
2017-12-21T05:07:30.670Z,5.97
2017-12-21T05:08:05.085Z,6.25
2017-12-21T05:08:39.170Z,5.50
2017-12-21T05:09:13.596Z,6.03
2017-12-21T05:09:48.252Z,5.80
2017-12-21T05:10:21.906Z,5.57
2017-12-21T05:10:55.560Z,6.10
2017-12-21T05:11:29.221Z,6.22
2017-12-21T05:12:02.869Z,5.90
2017-12-21T05:12:36.530Z,6.35
2017-12-21T05:13:10.185Z,5.97
2017-12-21T05:13:43.849Z,5.97
2017-12-21T05:14:17.168Z,6.12
2017-12-21T05:14:50.846Z,5.75
2017-12-21T05:15:24.499Z,5.85
2017-12-21T05:15:58.159Z,5.12
2017-12-21T05:16:32.573Z,5.37
2017-12-21T05:17:06.984Z,5.78
2017-12-21T05:17:41.401Z,6.03
2017-12-21T05:18:15.098Z,5.53
2017-12-21T05:18:48.753Z,6.00
2017-12-21T05:19:22.404Z,6.05
2017-12-21T05:19:56.435Z,5.80
2017-12-21T05:20:29.438Z,5.82
2017-12-21T05:21:03.870Z,5.62
2017-12-21T05:21:37.521Z,5.72
2017-12-21T05:22:11.609Z,6.00
2017-12-21T05:22:44.935Z,5.80
2017-12-21T05:23:18.581Z,6.70
2017-12-21T05:23:52.237Z,6.15
2017-12-21T05:24:25.881Z,5.75
2017-12-21T05:25:00.326Z,6.53
2017-12-21T05:25:33.978Z,6.32
2017-12-21T05:26:08.075Z,6.68
2017-12-21T05:26:42.481Z,6.50
2017-12-21T05:27:16.898Z,6.45
2017-12-21T05:27:50.574Z,7.25
2017-12-21T05:28:24.992Z,7.50
2017-12-21T05:28:58.640Z,7.37
2017-12-21T05:29:32.306Z,7.62
2017-12-21T05:30:05.990Z,7.22
2017-12-21T05:30:39.650Z,7.35
2017-12-21T05:31:13.324Z,7.50
2017-12-21T05:31:47.752Z,7.75
2017-12-21T05:32:21.403Z,7.72
2017-12-21T05:32:55.076Z,7.78
2017-12-21T05:33:28.767Z,7.72
2017-12-21T05:34:02.431Z,7.75
2017-12-21T05:34:36.104Z,7.85
2017-12-21T05:35:09.787Z,7.28
2017-12-21T05:35:43.446Z,8.32
2017-12-21T05:36:17.094Z,7.97
2017-12-21T05:36:50.755Z,7.90
2017-12-21T05:37:24.410Z,7.97
2017-12-21T05:37:58.070Z,7.75
2017-12-21T05:38:31.727Z,8.40
2017-12-21T05:39:08.097Z,9.00
2017-12-21T05:39:41.753Z,7.82
2017-12-21T05:40:15.732Z,8.30
2017-12-21T05:40:50.154Z,8.30
2017-12-21T05:41:23.812Z,8.43
2017-12-21T05:41:57.460Z,7.80
2017-12-21T05:42:31.118Z,7.70
2017-12-21T05:43:05.555Z,8.50
2017-12-21T05:43:39.270Z,8.85
2017-12-21T05:44:13.074Z,8.63
2017-12-21T05:44:46.797Z,8.77
2017-12-21T05:45:21.235Z,8.20
2017-12-21T05:45:54.893Z,8.88
2017-12-21T05:46:29.306Z,8.77
2017-12-21T05:47:02.970Z,8.30
2017-12-21T05:47:38.132Z,9.02
2017-12-21T05:48:13.095Z,9.20
2017-12-21T05:48:46.765Z,9.60
2017-12-21T05:49:20.421Z,8.98
2017-12-21T05:49:54.078Z,9.45
2017-12-21T05:50:27.760Z,9.20
2017-12-21T05:51:01.100Z,9.77
2017-12-21T05:51:34.442Z,9.10
2017-12-21T05:52:08.551Z,9.43
2017-12-21T05:52:42.967Z,9.40
2017-12-21T05:53:17.391Z,9.70
2017-12-21T05:53:50.726Z,9.05
2017-12-21T05:54:24.409Z,10.60
2017-12-21T05:54:58.159Z,10.73
2017-12-21T05:55:31.857Z,9.98
2017-12-21T05:56:05.536Z,11.93
2017-12-21T05:56:39.190Z,9.55
2017-12-21T05:57:12.946Z,9.95
2017-12-21T05:57:46.606Z,9.75
2017-12-21T05:58:20.279Z,10.15
2017-12-21T05:58:53.941Z,10.00
2017-12-21T05:59:28.398Z,10.10
2017-12-21T06:00:02.071Z,9.93
2017-12-21T06:00:35.427Z,10.23
2017-12-21T06:01:09.212Z,10.98
2017-12-21T06:01:43.641Z,9.90
2017-12-21T06:02:17.295Z,10.35
2017-12-21T06:02:50.642Z,10.63
2017-12-21T06:03:24.298Z,10.40
2017-12-21T06:03:57.959Z,10.10
2017-12-21T06:04:31.675Z,9.82
2017-12-21T06:05:05.509Z,10.43
2017-12-21T06:05:39.190Z,9.70
2017-12-21T06:06:12.276Z,10.55
2017-12-21T06:06:45.614Z,11.20
2017-12-21T06:07:20.045Z,10.70
2017-12-21T06:07:53.715Z,12.02
2017-12-21T06:08:27.054Z,10.60
2017-12-21T06:09:00.733Z,11.12
2017-12-21T06:09:34.409Z,11.05
2017-12-21T06:10:08.087Z,11.90
2017-12-21T06:10:42.034Z,10.43
2017-12-21T06:11:16.470Z,10.75
2017-12-21T06:11:50.151Z,11.27
2017-12-21T06:12:24.590Z,11.30
2017-12-21T06:12:58.262Z,11.12
2017-12-21T06:13:31.937Z,11.32
2017-12-21T06:14:06.396Z,10.57
2017-12-21T06:14:40.895Z,10.98
2017-12-21T06:15:14.575Z,11.60
2017-12-21T06:15:48.442Z,10.70
2017-12-21T06:16:22.975Z,10.63
2017-12-21T06:16:56.673Z,10.43
2017-12-21T06:17:30.361Z,10.20
2017-12-21T06:18:04.241Z,10.90
2017-12-21T06:18:37.914Z,11.40
2017-12-21T06:19:12.385Z,10.50
2017-12-21T06:19:46.041Z,11.68
2017-12-21T06:20:19.717Z,12.43
2017-12-21T06:20:53.417Z,10.80
2017-12-21T06:21:27.086Z,11.73
2017-12-21T06:22:01.612Z,12.02
2017-12-21T06:22:35.296Z,11.70
2017-12-21T06:23:08.972Z,12.70
2017-12-21T06:23:42.672Z,11.50
2017-12-21T06:24:16.347Z,11.38
2017-12-21T06:24:50.893Z,10.73
2017-12-21T06:25:24.604Z,11.35
2017-12-21T06:25:58.313Z,11.60
2017-12-21T06:26:31.998Z,11.38
2017-12-21T06:27:05.668Z,11.65
2017-12-21T06:27:39.348Z,11.88
2017-12-21T06:28:13.044Z,12.02
2017-12-21T06:28:46.731Z,10.75
2017-12-21T06:29:20.422Z,12.18
2017-12-21T06:29:54.094Z,10.13
2017-12-21T06:30:27.763Z,11.85
2017-12-21T06:31:01.478Z,11.20
2017-12-21T06:31:35.150Z,12.60
2017-12-21T06:32:08.826Z,11.32
2017-12-21T06:32:43.266Z,11.68
2017-12-21T06:33:16.939Z,11.40
2017-12-21T06:33:50.667Z,11.90
2017-12-21T06:34:24.331Z,11.95
2017-12-21T06:34:57.994Z,11.02
2017-12-21T06:35:31.679Z,11.82
2017-12-21T06:36:06.144Z,11.10
2017-12-21T06:36:39.813Z,11.57
2017-12-21T06:37:13.480Z,11.10
2017-12-21T06:37:47.150Z,12.00
2017-12-21T06:38:21.589Z,12.18
2017-12-21T06:38:55.262Z,12.95
2017-12-21T06:39:28.927Z,11.30
2017-12-21T06:40:03.357Z,11.55
2017-12-21T06:40:37.033Z,10.73
2017-12-21T06:41:11.603Z,11.65
2017-12-21T06:41:45.275Z,12.20
2017-12-21T06:42:18.979Z,12.40
2017-12-21T06:42:52.662Z,11.02
2017-12-21T06:43:26.342Z,11.27
2017-12-21T06:43:59.999Z,12.35
2017-12-21T06:44:33.668Z,11.60
2017-12-21T06:45:07.343Z,10.70
2017-12-21T06:45:41.038Z,11.75
2017-12-21T06:46:15.079Z,11.12
2017-12-21T06:46:48.752Z,11.10
2017-12-21T06:47:23.197Z,10.95
2017-12-21T06:47:56.861Z,10.88
2017-12-21T06:48:30.545Z,11.25
2017-12-21T06:49:04.235Z,10.50
2017-12-21T06:49:37.935Z,11.75
2017-12-21T06:50:11.598Z,10.38
2017-12-21T06:50:46.041Z,11.90
2017-12-21T06:51:19.736Z,11.10
2017-12-21T06:51:53.400Z,9.73
2017-12-21T06:52:27.840Z,10.27
2017-12-21T06:53:01.495Z,7.45
2017-12-21T06:53:35.937Z,9.30
2017-12-21T06:54:09.779Z,8.80
2017-12-21T06:54:43.446Z,9.32
2017-12-21T06:55:17.125Z,8.30
2017-12-21T06:55:50.799Z,9.07
2017-12-21T06:56:24.854Z,8.60
2017-12-21T06:56:59.286Z,8.20
2017-12-21T06:57:32.994Z,7.72
2017-12-21T06:58:06.650Z,9.13
2017-12-21T06:58:41.087Z,9.43
2017-12-21T06:59:14.767Z,8.13
2017-12-21T06:59:48.438Z,8.88
2017-12-21T07:00:22.877Z,8.38
2017-12-21T07:00:56.530Z,7.95
2017-12-21T07:01:31.018Z,8.35
2017-12-21T07:02:04.702Z,7.95
2017-12-21T07:02:38.357Z,8.05
2017-12-21T07:03:12.020Z,8.52
2017-12-21T07:03:45.693Z,9.10
2017-12-21T07:04:20.110Z,8.68
2017-12-21T07:04:54.543Z,9.30
2017-12-21T07:05:28.223Z,9.07
2017-12-21T07:06:01.886Z,9.32
2017-12-21T07:06:36.706Z,9.23
2017-12-21T07:07:11.149Z,8.73
2017-12-21T07:07:44.802Z,9.60
2017-12-21T07:08:19.246Z,10.95
2017-12-21T07:08:52.930Z,9.60
2017-12-21T07:09:26.594Z,8.98
2017-12-21T07:10:00.391Z,10.15
2017-12-21T07:10:34.075Z,9.80
2017-12-21T07:11:08.518Z,9.30
2017-12-21T07:11:42.570Z,12.23
2017-12-21T07:12:17.006Z,9.80
2017-12-21T07:12:50.696Z,10.15
2017-12-21T07:13:24.361Z,10.73
2017-12-21T07:13:58.042Z,11.18
2017-12-21T07:14:32.483Z,10.80
2017-12-21T07:15:06.159Z,11.10
2017-12-21T07:15:42.469Z,11.40
2017-12-21T07:16:16.149Z,10.57
2017-12-21T07:16:49.851Z,10.55
2017-12-21T07:17:23.514Z,11.45
2017-12-21T07:17:57.201Z,10.30
2017-12-21T07:18:30.881Z,9.98
2017-12-21T07:19:04.554Z,10.05
2017-12-21T07:19:38.251Z,9.80
2017-12-21T07:20:12.243Z,11.00
2017-12-21T07:20:45.904Z,11.20